createdAt,value
2024-02-18T00:00:07.658Z,97.40
2024-02-18T00:02:36.263Z,115.20
2024-02-18T00:05:05.526Z,120.40
2024-02-18T00:07:32.900Z,132.53
2024-02-18T00:10:00.890Z,137.47
2024-02-18T00:12:28.143Z,134.63
2024-02-18T00:14:55.092Z,144.27
2024-02-18T00:17:22.205Z,138.30
2024-02-18T00:19:49.460Z,132.20
2024-02-18T00:22:16.493Z,137.93
2024-02-18T00:24:43.573Z,136.27
2024-02-18T00:27:11.916Z,123.00
2024-02-18T00:29:39.567Z,138.63
2024-02-18T00:32:07.133Z,120.87
2024-02-18T00:34:34.289Z,136.27
2024-02-18T00:37:01.684Z,133.00
2024-02-18T00:39:29.033Z,134.60
2024-02-18T00:41:55.880Z,126.37
2024-02-18T00:44:24.581Z,147.33
2024-02-18T00:47:00.622Z,138.83
2024-02-18T00:49:34.496Z,119.13
2024-02-18T00:52:02.436Z,143.17
2024-02-18T00:54:29.656Z,142.97
2024-02-18T00:56:56.598Z,134.40
2024-02-18T00:59:23.858Z,136.57
2024-02-18T01:01:50.954Z,130.57
2024-02-18T01:04:17.987Z,135.77
2024-02-18T01:06:45.383Z,152.27
2024-02-18T01:09:12.395Z,145.03
2024-02-18T01:11:39.347Z,155.97
2024-02-18T01:14:06.236Z,167.93
2024-02-18T01:16:33.192Z,171.83
2024-02-18T01:19:00.385Z,160.97
2024-02-18T01:21:27.554Z,161.00
2024-02-18T01:23:54.570Z,158.83
2024-02-18T01:26:21.436Z,154.87
2024-02-18T01:28:48.325Z,160.00
2024-02-18T01:31:15.443Z,136.40
2024-02-18T01:33:44.983Z,150.57
2024-02-18T01:36:11.912Z,160.50
2024-02-18T01:38:38.886Z,144.33
2024-02-18T01:41:05.942Z,149.80
2024-02-18T01:43:33.368Z,150.73
2024-02-18T01:46:00.860Z,151.43
2024-02-18T01:48:28.078Z,156.97
2024-02-18T01:50:55.547Z,144.63
2024-02-18T01:53:23.524Z,150.80
2024-02-18T01:55:51.851Z,152.37
2024-02-18T01:58:18.936Z,159.53
2024-02-18T02:00:46.131Z,159.67
2024-02-18T02:03:14.742Z,162.30
2024-02-18T02:05:46.545Z,162.87
2024-02-18T02:08:13.802Z,144.90
2024-02-18T02:10:43.776Z,144.50
2024-02-18T02:13:10.811Z,144.43
2024-02-18T02:15:37.792Z,145.50
2024-02-18T02:18:05.562Z,150.43
2024-02-18T02:20:32.545Z,133.97
2024-02-18T02:23:00.105Z,128.07
2024-02-18T02:25:27.196Z,127.33
2024-02-18T02:28:14.589Z,118.87
2024-02-18T02:30:41.754Z,130.07
2024-02-18T02:33:09.535Z,127.13
2024-02-18T02:35:38.216Z,130.50
2024-02-18T02:38:06.794Z,115.53
2024-02-18T02:40:36.061Z,118.93
2024-02-18T02:43:03.342Z,105.93
2024-02-18T02:45:31.964Z,102.37
2024-02-18T02:47:59.207Z,106.67
2024-02-18T02:50:26.223Z,96.30
2024-02-18T02:52:53.123Z,90.80
2024-02-18T02:55:19.998Z,93.93
2024-02-18T02:57:49.429Z,82.67
2024-02-18T03:00:17.088Z,89.03
2024-02-18T03:02:44.095Z,86.97
2024-02-18T03:05:11.377Z,86.53
2024-02-18T03:07:38.895Z,82.97
2024-02-18T03:10:06.457Z,93.90
2024-02-18T03:12:33.548Z,81.43
2024-02-18T03:15:00.870Z,74.57
2024-02-18T03:17:27.890Z,69.07
2024-02-18T03:19:55.699Z,65.03
2024-02-18T03:22:24.548Z,68.63
2024-02-18T03:24:52.024Z,77.07
2024-02-18T03:27:19.328Z,68.00
2024-02-18T03:29:46.737Z,63.57
2024-02-18T03:32:14.619Z,63.97
2024-02-18T03:34:44.145Z,58.27
2024-02-18T03:37:12.984Z,56.13
2024-02-18T03:39:40.161Z,56.03
2024-02-18T03:42:07.835Z,63.97
2024-02-18T03:44:35.922Z,62.67
2024-02-18T03:47:03.220Z,58.23
2024-02-18T03:49:30.671Z,62.23
2024-02-18T03:51:58.050Z,52.03
2024-02-18T03:54:25.230Z,49.63
2024-02-18T03:56:53.115Z,58.20
2024-02-18T03:59:20.650Z,46.77
2024-02-18T04:01:47.775Z,49.23
2024-02-18T04:04:15.709Z,50.00
2024-02-18T04:06:42.664Z,50.60
2024-02-18T04:09:11.159Z,45.93
2024-02-18T04:11:38.533Z,44.07
2024-02-18T04:14:05.607Z,49.00
2024-02-18T04:16:32.449Z,43.77
2024-02-18T04:18:59.378Z,50.47
2024-02-18T04:21:26.345Z,42.57
2024-02-18T04:23:53.241Z,51.67
2024-02-18T04:26:20.105Z,44.47
2024-02-18T04:28:47.081Z,52.33
2024-02-18T04:31:14.268Z,50.83
2024-02-18T04:33:41.335Z,45.40
2024-02-18T04:36:08.960Z,51.47
2024-02-18T04:38:35.839Z,60.63
2024-02-18T04:41:02.718Z,38.87
2024-02-18T04:43:29.753Z,53.20
2024-02-18T04:45:56.916Z,56.50
2024-02-18T04:48:24.295Z,40.03
2024-02-18T04:50:51.604Z,41.23
2024-02-18T04:53:18.683Z,40.10
2024-02-18T04:55:45.670Z,51.03
2024-02-18T04:58:12.776Z,43.23
2024-02-18T05:00:39.755Z,45.70
2024-02-18T05:03:06.729Z,39.23
2024-02-18T05:05:33.811Z,53.97
2024-02-18T05:08:01.143Z,35.87
2024-02-18T05:10:27.986Z,39.17
2024-02-18T05:12:55.624Z,35.30
2024-02-18T05:15:22.778Z,43.43
2024-02-18T05:17:50.153Z,42.20
2024-02-18T05:20:17.105Z,37.80
2024-02-18T05:22:45.092Z,37.13
2024-02-18T05:25:12.429Z,36.77
2024-02-18T05:27:39.319Z,48.53
2024-02-18T05:30:06.930Z,32.17
2024-02-18T05:32:33.960Z,40.00
2024-02-18T05:35:01.031Z,38.90
2024-02-18T05:37:28.223Z,37.83
2024-02-18T05:39:55.241Z,40.37
2024-02-18T05:42:22.661Z,39.57
2024-02-18T05:44:49.610Z,32.57
2024-02-18T05:47:16.574Z,39.03
2024-02-18T05:49:44.714Z,37.37
2024-02-18T05:52:12.135Z,41.17
2024-02-18T05:54:39.378Z,37.40
2024-02-18T05:57:07.854Z,32.60
2024-02-18T05:59:34.736Z,35.47
2024-02-18T06:02:01.857Z,34.90
2024-02-18T06:04:28.683Z,37.17
2024-02-18T06:06:55.621Z,40.40
2024-02-18T06:09:22.793Z,36.53
2024-02-18T06:11:49.834Z,46.43
2024-02-18T06:14:17.085Z,34.30
2024-02-18T06:16:44.033Z,32.17
2024-02-18T06:19:15.668Z,34.27
2024-02-18T06:21:44.338Z,37.93
2024-02-18T06:24:11.374Z,30.27
2024-02-18T06:26:41.898Z,30.03
2024-02-18T06:29:08.979Z,44.77
2024-02-18T06:31:35.978Z,28.60
2024-02-18T06:34:03.050Z,33.50
2024-02-18T06:36:32.410Z,26.07
2024-02-18T06:38:59.438Z,34.80
2024-02-18T06:41:26.475Z,34.23
2024-02-18T06:43:53.450Z,30.03
2024-02-18T06:46:20.567Z,28.00
2024-02-18T06:48:50.064Z,30.27
2024-02-18T06:51:17.136Z,33.90
2024-02-18T06:53:44.100Z,36.60
2024-02-18T06:56:11.136Z,28.47
2024-02-18T06:58:38.153Z,23.90
2024-02-18T07:01:05.320Z,33.00
2024-02-18T07:03:33.771Z,27.53
2024-02-18T07:06:01.374Z,24.70
2024-02-18T07:08:28.313Z,31.77
2024-02-18T07:10:55.309Z,22.80
2024-02-18T07:13:22.226Z,32.77
2024-02-18T07:15:50.174Z,19.40
2024-02-18T07:18:17.238Z,28.55
2024-02-18T07:20:44.584Z,25.37
2024-02-18T07:23:13.077Z,25.37
2024-02-18T07:25:41.938Z,25.73
2024-02-18T07:28:09.260Z,23.10
2024-02-18T07:30:36.250Z,35.73
2024-02-18T07:33:03.926Z,26.73
2024-02-18T07:35:31.166Z,18.10
2024-02-18T07:37:58.643Z,27.20
2024-02-18T07:40:26.506Z,25.67
2024-02-18T07:42:53.517Z,16.27
2024-02-18T07:45:20.395Z,21.10
2024-02-18T07:47:47.379Z,24.10
2024-02-18T07:50:14.367Z,17.90
2024-02-18T07:52:41.289Z,18.40
2024-02-18T07:55:08.213Z,11.70
2024-02-18T07:57:35.167Z,14.63
2024-02-18T08:00:03.000Z,17.43
2024-02-18T08:02:33.354Z,16.97
2024-02-18T08:05:00.505Z,14.07
2024-02-18T08:07:28.463Z,13.17
2024-02-18T08:09:55.528Z,16.90
2024-02-18T08:12:22.645Z,20.13
2024-02-18T08:14:49.874Z,11.07
2024-02-18T08:17:16.803Z,13.73
2024-02-18T08:19:44.117Z,16.43
2024-02-18T08:22:11.339Z,17.30
2024-02-18T08:24:41.894Z,17.80
2024-02-18T08:27:09.568Z,10.90
2024-02-18T08:29:38.571Z,19.13
2024-02-18T08:32:07.311Z,13.00
2024-02-18T08:34:34.506Z,9.57
2024-02-18T08:37:01.773Z,17.07
2024-02-18T08:39:29.677Z,10.83
2024-02-18T08:41:56.982Z,13.20
2024-02-18T08:44:23.960Z,12.53
2024-02-18T08:46:51.564Z,11.73
2024-02-18T08:49:18.967Z,10.60
2024-02-18T08:55:45.066Z,17.97
2024-02-18T08:58:12.217Z,9.97
2024-02-18T09:00:39.530Z,12.03
2024-02-18T09:03:06.560Z,9.20
2024-02-18T09:05:33.551Z,13.03
2024-02-18T09:08:00.636Z,14.97
2024-02-18T09:10:27.771Z,15.07
2024-02-18T09:13:03.033Z,15.33
2024-02-18T09:15:31.305Z,8.77
2024-02-18T09:17:58.608Z,12.67
2024-02-18T09:20:26.308Z,8.60
2024-02-18T09:22:53.429Z,7.83
2024-02-18T09:25:20.359Z,11.80
2024-02-18T09:27:47.365Z,10.80
2024-02-18T09:30:15.157Z,12.10
2024-02-18T09:32:42.938Z,12.50
2024-02-18T09:35:10.415Z,9.47
2024-02-18T09:37:37.658Z,11.07
2024-02-18T09:40:05.611Z,11.97
2024-02-18T09:42:42.498Z,13.70
2024-02-18T09:45:21.714Z,12.20
2024-02-18T09:48:13.645Z,16.40
2024-02-18T09:50:54.039Z,12.23
2024-02-18T09:53:35.623Z,9.00
2024-02-18T09:56:14.823Z,13.17
2024-02-18T09:58:41.968Z,11.47
2024-02-18T10:01:11.059Z,9.67
2024-02-18T10:03:38.211Z,15.53
2024-02-18T10:06:05.495Z,9.03
2024-02-18T10:08:56.217Z,13.27
2024-02-18T10:11:24.070Z,15.00
2024-02-18T10:13:57.304Z,10.87
2024-02-18T10:16:24.328Z,14.27
2024-02-18T10:18:55.324Z,13.67
2024-02-18T10:21:22.888Z,14.13
2024-02-18T10:23:50.996Z,15.73
2024-02-18T10:26:19.912Z,8.70
2024-02-18T10:28:48.627Z,14.57
2024-02-18T10:31:16.390Z,16.67
2024-02-18T10:33:43.519Z,10.77
2024-02-18T10:36:15.372Z,8.73
2024-02-18T10:38:53.239Z,11.13
2024-02-18T10:41:22.950Z,13.00
2024-02-18T10:43:57.798Z,14.53
2024-02-18T10:46:25.989Z,11.77
2024-02-18T10:49:20.712Z,8.73
2024-02-18T10:51:54.349Z,14.30
2024-02-18T10:54:51.692Z,14.43
2024-02-18T10:57:33.638Z,12.70
2024-02-18T11:00:20.988Z,11.57
2024-02-18T11:03:13.695Z,12.57
2024-02-18T11:05:50.503Z,15.83
2024-02-18T11:08:22.319Z,14.27
2024-02-18T11:11:04.515Z,11.03
2024-02-18T11:13:45.932Z,11.57
2024-02-18T11:19:06.739Z,9.97
2024-02-18T11:21:34.008Z,11.47
2024-02-18T11:24:01.198Z,12.60
2024-02-18T11:37:26.698Z,11.00
2024-02-18T11:40:00.978Z,12.77
2024-02-18T11:42:29.594Z,9.30
2024-02-18T11:45:07.842Z,10.60
2024-02-18T11:47:35.080Z,13.40
2024-02-18T11:50:02.299Z,11.60
2024-02-18T11:52:30.024Z,13.27
2024-02-18T11:54:57.202Z,22.17
2024-02-18T11:57:24.570Z,12.33
2024-02-18T11:59:51.750Z,19.77
2024-02-18T12:02:21.852Z,10.77
2024-02-18T12:04:50.019Z,14.10
2024-02-18T12:07:20.414Z,21.60
2024-02-18T12:09:47.830Z,13.97
2024-02-18T12:12:14.912Z,26.23
2024-02-18T12:14:52.158Z,14.60
2024-02-18T12:17:19.739Z,13.47
2024-02-18T12:19:48.560Z,19.43
2024-02-18T12:22:28.199Z,11.23
2024-02-18T12:24:58.112Z,15.33
2024-02-18T12:27:25.897Z,14.73
2024-02-18T12:29:56.568Z,14.13
2024-02-18T12:32:23.692Z,13.77
2024-02-18T12:34:54.258Z,12.83
2024-02-18T12:37:30.779Z,9.67
2024-02-18T12:40:02.696Z,10.57
2024-02-18T12:42:30.121Z,13.73
2024-02-18T12:45:37.759Z,16.53
2024-02-18T12:47:44.515Z,11.40
2024-02-18T12:50:13.118Z,16.60
2024-02-18T12:52:41.098Z,10.67
2024-02-18T12:55:09.046Z,16.63
2024-02-18T12:57:36.364Z,13.20
2024-02-18T13:00:08.582Z,18.47
2024-02-18T13:02:36.325Z,13.77
2024-02-18T13:05:04.745Z,12.55
2024-02-18T13:07:38.058Z,12.07
2024-02-18T13:10:06.902Z,12.93
2024-02-18T13:12:34.003Z,12.40
2024-02-18T13:15:02.065Z,14.43
2024-02-18T13:17:29.225Z,12.50
2024-02-18T13:19:56.198Z,7.37
2024-02-18T13:22:23.312Z,17.40
2024-02-18T13:24:52.004Z,22.37
2024-02-18T13:27:20.247Z,12.47
2024-02-18T13:29:47.230Z,9.83
2024-02-18T13:32:14.393Z,10.47
2024-02-18T13:34:41.710Z,7.80
2024-02-18T13:37:10.659Z,7.97
2024-02-18T13:39:37.673Z,9.23
2024-02-18T13:42:05.536Z,11.23
2024-02-18T13:44:33.832Z,6.80
2024-02-18T13:47:03.319Z,7.87
2024-02-18T13:49:30.776Z,7.87
2024-02-18T13:51:58.731Z,11.17
2024-02-18T13:54:26.068Z,5.10
2024-02-18T13:56:53.516Z,8.77
2024-02-18T13:59:21.661Z,8.27
2024-02-18T14:01:48.905Z,6.27
2024-02-18T14:04:16.304Z,4.70
2024-02-18T14:06:43.675Z,6.70
2024-02-18T14:09:13.515Z,8.00
2024-02-18T14:11:43.207Z,8.40
2024-02-18T14:14:11.224Z,7.13
2024-02-18T14:16:40.380Z,7.47
2024-02-18T14:19:07.591Z,8.00
2024-02-18T14:21:34.699Z,4.73
2024-02-18T14:24:01.814Z,8.13
2024-02-18T14:26:29.981Z,9.77
2024-02-18T14:28:57.006Z,6.57
2024-02-18T14:31:24.349Z,6.87
2024-02-18T14:33:53.327Z,8.60
2024-02-18T14:36:20.493Z,6.27
2024-02-18T14:38:47.458Z,4.93
2024-02-18T14:41:14.454Z,11.03
2024-02-18T14:43:41.533Z,4.10
2024-02-18T14:46:12.340Z,8.10
2024-02-18T14:48:39.704Z,7.90
2024-02-18T14:51:07.863Z,4.87
2024-02-18T14:53:35.219Z,6.07
2024-02-18T14:56:02.405Z,7.73
2024-02-18T14:58:32.354Z,6.37
2024-02-18T15:01:00.212Z,5.47
2024-02-18T15:03:27.422Z,13.37
2024-02-18T15:05:55.541Z,6.40
2024-02-18T15:08:23.132Z,6.93
2024-02-18T15:10:50.519Z,8.17
2024-02-18T15:13:19.958Z,5.40
2024-02-18T15:15:47.283Z,7.57
2024-02-18T15:18:14.895Z,6.27
2024-02-18T15:20:42.496Z,6.93
2024-02-18T15:23:09.492Z,12.23
2024-02-18T15:25:36.548Z,4.17
2024-02-18T15:28:03.819Z,7.27
2024-02-18T15:30:30.959Z,8.83
2024-02-18T15:32:58.080Z,6.50
2024-02-18T15:35:25.872Z,8.07
2024-02-18T15:37:52.938Z,10.67
2024-02-18T15:40:21.519Z,7.60
2024-02-18T15:42:48.667Z,6.83
2024-02-18T15:45:17.257Z,9.93
2024-02-18T15:47:44.535Z,8.63
2024-02-18T15:50:12.189Z,8.67
2024-02-18T15:52:39.223Z,5.97
2024-02-18T15:55:06.774Z,12.77
2024-02-18T15:57:33.831Z,6.97
2024-02-18T16:00:04.589Z,8.53
2024-02-18T16:02:37.774Z,5.40
2024-02-18T16:05:06.521Z,7.97
2024-02-18T16:07:35.107Z,8.00
2024-02-18T16:10:02.350Z,9.67
2024-02-18T16:12:29.849Z,10.23
2024-02-18T16:14:58.432Z,7.87
2024-02-18T16:17:28.909Z,11.93
2024-02-18T16:19:57.537Z,10.17
2024-02-18T16:22:25.044Z,11.60
2024-02-18T16:24:52.230Z,7.63
2024-02-18T16:27:19.404Z,6.03
2024-02-18T16:29:46.532Z,6.63
2024-02-18T16:32:13.664Z,13.80
2024-02-18T16:34:40.892Z,5.57
2024-02-18T16:37:08.106Z,6.27
2024-02-18T16:39:36.826Z,12.80
2024-02-18T16:42:04.388Z,7.07
2024-02-18T16:44:31.822Z,8.90
2024-02-18T16:47:01.590Z,6.93
2024-02-18T16:49:28.871Z,11.10
2024-02-18T16:51:57.535Z,7.23
2024-02-18T16:54:25.027Z,5.90
2024-02-18T16:56:52.218Z,6.27
2024-02-18T16:59:20.115Z,5.33
2024-02-18T17:01:49.372Z,7.03
2024-02-18T17:04:17.408Z,6.63
2024-02-18T17:06:46.826Z,9.17
2024-02-18T17:09:43.396Z,8.27
2024-02-18T17:12:11.147Z,8.30
2024-02-18T17:14:38.687Z,8.63
2024-02-18T17:17:06.157Z,7.37
2024-02-18T17:19:34.994Z,12.23
2024-02-18T17:22:02.287Z,4.50
2024-02-18T17:24:29.963Z,3.70
2024-02-18T17:27:00.085Z,11.87
2024-02-18T17:29:27.444Z,7.00
2024-02-18T17:31:56.038Z,9.77
2024-02-18T17:34:26.118Z,8.20
2024-02-18T17:36:55.933Z,5.43
2024-02-18T17:39:26.749Z,6.90
2024-02-18T17:41:54.276Z,9.07
2024-02-18T17:44:21.550Z,7.67
2024-02-18T17:46:49.205Z,5.17
2024-02-18T17:49:16.680Z,5.07
2024-02-18T17:51:45.317Z,4.17
2024-02-18T17:54:19.046Z,4.07
2024-02-18T17:56:47.742Z,6.23
2024-02-18T17:59:15.364Z,7.40
2024-02-18T18:01:42.533Z,6.33
2024-02-18T18:04:09.972Z,5.40
2024-02-18T18:06:38.884Z,5.93
2024-02-18T18:09:06.674Z,5.83
2024-02-18T18:11:34.206Z,4.17
2024-02-18T18:14:01.914Z,7.80
2024-02-18T18:16:28.961Z,3.60
2024-02-18T18:18:56.102Z,4.63
2024-02-18T18:21:23.166Z,3.83
2024-02-18T18:23:55.044Z,6.83
2024-02-18T18:26:24.457Z,4.97
2024-02-18T18:28:51.527Z,3.00
2024-02-18T18:31:18.869Z,3.43
2024-02-18T18:33:46.513Z,6.20
2024-02-18T18:36:14.013Z,4.50
2024-02-18T18:38:41.025Z,8.23
2024-02-18T18:41:08.145Z,4.97
2024-02-18T18:43:35.262Z,5.77
2024-02-18T18:46:02.700Z,6.00
2024-02-18T18:48:32.180Z,8.50
2024-02-18T18:50:59.479Z,7.43
2024-02-18T18:53:27.202Z,5.77
2024-02-18T18:55:54.375Z,7.37
2024-02-18T18:58:21.475Z,10.27
2024-02-18T19:00:48.770Z,8.70
2024-02-18T19:03:15.868Z,11.00
2024-02-18T19:05:44.897Z,11.00
2024-02-18T19:08:12.264Z,13.37
2024-02-18T19:10:39.767Z,14.20
2024-02-18T19:13:18.802Z,12.53
2024-02-18T19:15:57.151Z,13.80
2024-02-18T19:18:24.286Z,17.73
2024-02-18T19:20:51.425Z,13.37
2024-02-18T19:23:21.454Z,12.10
2024-02-18T19:25:48.718Z,11.97
2024-02-18T19:28:16.160Z,12.50
2024-02-18T19:30:43.447Z,12.60
2024-02-18T19:33:11.364Z,12.07
2024-02-18T19:35:39.790Z,11.53
2024-02-18T19:38:07.293Z,15.17
2024-02-18T19:40:34.632Z,14.00
2024-02-18T19:43:01.993Z,12.47
2024-02-18T19:45:29.185Z,13.17
2024-02-18T19:48:00.117Z,12.47
2024-02-18T19:50:27.418Z,11.03
2024-02-18T19:52:54.516Z,14.70
2024-02-18T19:55:21.665Z,12.20
2024-02-18T19:57:50.638Z,15.70
2024-02-18T20:00:17.992Z,12.00
2024-02-18T20:02:45.636Z,11.63
2024-02-18T20:05:12.908Z,9.37
2024-02-18T20:07:40.178Z,16.10
2024-02-18T20:10:10.679Z,13.73
2024-02-18T20:16:26.871Z,10.60
2024-02-18T20:18:54.660Z,14.30
2024-02-18T20:21:24.264Z,10.13
2024-02-18T20:23:51.345Z,8.82
2024-02-18T20:26:19.496Z,8.90
2024-02-18T20:28:50.177Z,5.20
2024-02-18T20:31:21.615Z,5.13
2024-02-18T20:33:50.470Z,5.07
2024-02-18T20:36:18.476Z,4.37
2024-02-18T20:38:46.188Z,4.43
2024-02-18T20:44:15.324Z,4.97
2024-02-18T20:46:43.873Z,5.83
2024-02-18T20:49:11.129Z,5.03
2024-02-18T20:51:38.487Z,2.57
2024-02-18T20:54:05.582Z,2.10
2024-02-18T20:56:32.713Z,3.87
2024-02-18T20:58:59.710Z,2.23
2024-02-18T21:01:26.842Z,1.63
2024-02-18T21:03:54.174Z,1.63
2024-02-18T21:06:23.762Z,2.47
2024-02-18T21:08:50.938Z,1.93
2024-02-18T21:11:19.994Z,1.60
2024-02-18T21:13:47.128Z,1.33
2024-02-18T21:16:18.352Z,2.63
2024-02-18T21:18:47.772Z,4.00
2024-02-18T21:21:16.592Z,3.37
2024-02-18T21:23:43.697Z,2.70
2024-02-18T21:26:20.764Z,2.23
2024-02-18T21:28:50.246Z,2.03
2024-02-18T21:31:18.454Z,4.50
2024-02-18T21:33:45.898Z,2.30
2024-02-18T21:36:17.304Z,1.70
2024-02-18T21:38:44.763Z,2.30
2024-02-18T21:41:12.043Z,1.80
2024-02-18T21:43:40.592Z,1.87
2024-02-18T21:46:11.473Z,6.23
2024-02-18T21:48:39.536Z,2.13
2024-02-18T21:51:06.878Z,2.30
2024-02-18T21:53:34.034Z,2.23
2024-02-18T21:56:02.467Z,2.73
2024-02-18T21:58:29.628Z,2.30
2024-02-18T22:00:58.366Z,5.73
2024-02-18T22:03:25.428Z,2.30
2024-02-18T22:05:52.644Z,2.63
2024-02-18T22:08:19.674Z,4.10
2024-02-18T22:10:46.769Z,3.47
2024-02-18T22:13:15.648Z,3.03
2024-02-18T22:15:42.831Z,4.20
2024-02-18T22:18:10.051Z,4.50
2024-02-18T22:20:37.221Z,5.70
2024-02-18T22:23:04.448Z,7.93
2024-02-18T22:25:31.884Z,5.00
2024-02-18T22:27:59.388Z,7.03
2024-02-18T22:30:26.597Z,5.60
2024-02-18T22:32:54.196Z,8.57
2024-02-18T22:35:49.796Z,6.87
2024-02-18T22:42:28.029Z,9.90
2024-02-18T22:44:55.024Z,8.77
2024-02-18T22:47:21.974Z,8.47
2024-02-18T22:49:49.149Z,5.30
2024-02-18T22:52:17.352Z,4.77
2024-02-18T22:54:48.403Z,4.83
2024-02-18T22:57:16.080Z,6.00
2024-02-18T22:59:43.518Z,3.43
2024-02-18T23:02:10.640Z,3.03
2024-02-18T23:04:37.704Z,5.93
2024-02-18T23:07:07.595Z,4.17
2024-02-18T23:09:35.387Z,3.37
2024-02-18T23:12:03.392Z,3.37
2024-02-18T23:14:30.445Z,4.83
2024-02-18T23:16:57.539Z,3.00
2024-02-18T23:19:24.884Z,2.47
2024-02-18T23:21:51.993Z,8.43
2024-02-18T23:24:19.118Z,3.20
2024-02-18T23:26:46.183Z,1.73
2024-02-18T23:29:13.274Z,2.43
2024-02-18T23:31:40.393Z,5.17
2024-02-18T23:34:10.030Z,10.43
2024-02-18T23:36:37.608Z,4.30
2024-02-18T23:39:05.165Z,8.10
2024-02-18T23:41:32.380Z,3.63
2024-02-18T23:43:59.708Z,6.90
2024-02-18T23:46:26.739Z,1.77
2024-02-18T23:48:55.055Z,2.13
2024-02-18T23:51:22.186Z,3.83
2024-02-18T23:53:49.387Z,7.63
2024-02-18T23:56:16.511Z,4.90
2024-02-18T23:58:43.726Z,7.70
